createdAt,value
2023-01-17T00:00:08.279Z,4.50
2023-01-17T00:01:08.233Z,4.50
2023-01-17T00:02:08.243Z,4.50
2023-01-17T00:03:08.261Z,4.53
2023-01-17T00:04:08.358Z,4.50
2023-01-17T00:05:08.291Z,4.51
2023-01-17T00:06:08.301Z,4.50
2023-01-17T00:07:08.319Z,4.50
2023-01-17T00:08:08.326Z,4.50
2023-01-17T00:09:08.334Z,4.50
2023-01-17T00:10:08.352Z,4.49
2023-01-17T00:11:08.368Z,4.52
2023-01-17T00:12:08.367Z,4.50
2023-01-17T00:13:08.391Z,4.52
2023-01-17T00:14:08.400Z,4.50
2023-01-17T00:15:08.422Z,4.52
2023-01-17T00:16:08.439Z,4.50
2023-01-17T00:17:08.432Z,4.48
2023-01-17T00:18:08.439Z,4.49
2023-01-17T00:19:08.456Z,4.50
2023-01-17T00:20:08.463Z,4.51
2023-01-17T00:21:08.483Z,4.50
2023-01-17T00:22:08.499Z,4.47
2023-01-17T00:23:08.521Z,4.48
2023-01-17T00:24:08.535Z,4.47
2023-01-17T00:25:08.540Z,4.48
2023-01-17T00:26:08.559Z,4.44
2023-01-17T00:27:08.569Z,4.43
2023-01-17T00:28:08.582Z,4.43
2023-01-17T00:29:08.599Z,4.44
2023-01-17T00:30:08.608Z,4.41
2023-01-17T00:31:08.667Z,4.41
2023-01-17T00:32:08.637Z,4.40
2023-01-17T00:33:08.646Z,4.41
2023-01-17T00:34:08.646Z,4.40
2023-01-17T00:35:08.665Z,4.39
2023-01-17T00:36:08.678Z,4.38
2023-01-17T00:37:08.694Z,4.36
2023-01-17T00:38:08.712Z,4.35
2023-01-17T00:39:08.721Z,4.32
2023-01-17T00:40:08.731Z,4.34
2023-01-17T00:41:08.754Z,4.33
2023-01-17T00:42:08.761Z,4.35
2023-01-17T00:43:08.782Z,4.36
2023-01-17T00:44:08.800Z,4.36
2023-01-17T00:45:08.813Z,4.38
2023-01-17T00:46:08.822Z,4.39
2023-01-17T00:47:08.839Z,4.39
2023-01-17T00:48:08.850Z,4.40
2023-01-17T00:49:08.870Z,4.40
2023-01-17T00:50:08.878Z,4.41
2023-01-17T00:51:08.883Z,4.42
2023-01-17T00:52:08.933Z,4.42
2023-01-17T00:53:08.910Z,4.40
2023-01-17T00:54:08.931Z,4.42
2023-01-17T00:55:08.962Z,4.45
2023-01-17T00:56:08.957Z,4.46
2023-01-17T00:57:08.976Z,4.46
2023-01-17T00:58:08.993Z,4.44
2023-01-17T00:59:09.012Z,4.45
2023-01-17T01:00:09.027Z,4.44
2023-01-17T01:01:09.099Z,4.44
2023-01-17T01:02:09.149Z,4.44
2023-01-17T01:03:09.074Z,4.43
2023-01-17T01:04:09.085Z,4.41
2023-01-17T01:05:09.105Z,4.43
2023-01-17T01:06:09.120Z,4.42
2023-01-17T01:07:09.135Z,4.38
2023-01-17T01:08:09.164Z,4.37
2023-01-17T01:09:09.175Z,4.36
2023-01-17T01:10:09.188Z,4.35
2023-01-17T01:11:09.205Z,4.33
2023-01-17T01:12:09.215Z,4.33
2023-01-17T01:13:09.236Z,4.32
2023-01-17T01:14:09.251Z,4.34
2023-01-17T01:15:09.266Z,4.36
2023-01-17T01:16:09.296Z,4.33
2023-01-17T01:17:09.305Z,4.32
2023-01-17T01:18:09.307Z,4.32
2023-01-17T01:19:09.325Z,4.29
2023-01-17T01:20:09.330Z,4.30
2023-01-17T01:21:09.348Z,4.30
2023-01-17T01:22:09.364Z,4.29
2023-01-17T01:23:09.365Z,4.32
2023-01-17T01:24:09.377Z,4.33
2023-01-17T01:25:09.384Z,4.33
2023-01-17T01:26:09.396Z,4.32
2023-01-17T01:27:09.397Z,4.31
2023-01-17T01:28:09.419Z,4.32
2023-01-17T01:29:09.418Z,4.32
2023-01-17T01:30:09.419Z,4.33
2023-01-17T01:31:09.503Z,4.29
2023-01-17T01:32:09.439Z,4.30
2023-01-17T01:33:09.442Z,4.30
2023-01-17T01:34:09.441Z,4.29
2023-01-17T01:52:09.904Z,4.30
2023-01-17T01:53:09.561Z,4.30
2023-01-17T01:54:09.573Z,4.30
2023-01-17T01:55:09.584Z,4.29
2023-01-17T01:56:09.588Z,4.31
2023-01-17T01:57:09.590Z,4.30
2023-01-17T01:58:09.598Z,4.32
2023-01-17T01:59:09.594Z,4.32
2023-01-17T02:00:09.610Z,4.33
2023-01-17T02:01:09.759Z,4.35
2023-01-17T02:02:09.612Z,4.33
2023-01-17T02:03:09.619Z,4.33
2023-01-17T02:04:09.797Z,4.37
2023-01-17T02:05:09.630Z,4.36
2023-01-17T02:06:09.638Z,4.39
2023-01-17T02:07:09.648Z,4.36
2023-01-17T02:08:09.652Z,4.40
2023-01-17T02:09:09.663Z,4.41
2023-01-17T02:10:09.675Z,4.41
2023-01-17T02:11:09.674Z,4.41
2023-01-17T02:12:09.681Z,4.41
2023-01-17T02:13:09.690Z,4.43
2023-01-17T02:14:09.695Z,4.42
2023-01-17T02:15:09.712Z,4.42
2023-01-17T02:16:09.777Z,4.42
2023-01-17T02:17:09.730Z,4.41
2023-01-17T02:18:09.726Z,4.40
2023-01-17T02:19:09.730Z,4.39
2023-01-17T02:20:09.737Z,4.40
2023-01-17T02:21:09.750Z,4.41
2023-01-17T02:22:09.753Z,4.38
2023-01-17T02:23:09.753Z,4.40
2023-01-17T02:24:09.761Z,4.37
2023-01-17T02:25:09.772Z,4.38
2023-01-17T02:26:09.771Z,4.37
2023-01-17T02:27:09.780Z,4.38
2023-01-17T02:28:09.783Z,4.37
2023-01-17T02:29:09.804Z,4.36
2023-01-17T02:30:09.798Z,4.37
2023-01-17T02:31:09.810Z,4.36
2023-01-17T02:32:09.817Z,4.39
2023-01-17T02:33:09.833Z,4.42
2023-01-17T02:34:09.835Z,4.40
2023-01-17T02:35:09.839Z,4.41
2023-01-17T02:36:09.846Z,4.41
2023-01-17T02:37:09.859Z,4.39
2023-01-17T02:38:09.858Z,4.40
2023-01-17T02:39:09.884Z,4.41
2023-01-17T02:40:09.869Z,4.42
2023-01-17T02:41:09.877Z,4.42
2023-01-17T02:42:09.882Z,4.43
2023-01-17T02:43:09.887Z,4.43
2023-01-17T02:44:09.897Z,4.43
2023-01-17T02:45:09.905Z,4.44
2023-01-17T02:46:10.089Z,4.42
2023-01-17T02:47:09.915Z,4.44
2023-01-17T02:48:09.922Z,4.46
2023-01-17T02:49:09.930Z,4.45
2023-01-17T02:50:09.934Z,4.46
2023-01-17T02:51:09.967Z,4.44
2023-01-17T02:52:09.949Z,4.43
2023-01-17T02:53:09.956Z,4.42
2023-01-17T02:54:09.959Z,4.41
2023-01-17T02:55:09.967Z,4.40
2023-01-17T02:56:09.976Z,4.38
2023-01-17T02:57:09.982Z,4.35
2023-01-17T02:58:09.987Z,4.33
2023-01-17T02:59:09.990Z,4.30
2023-01-17T03:00:10.000Z,4.30
2023-01-17T03:01:10.133Z,4.31
2023-01-17T03:02:10.142Z,4.32
2023-01-17T03:03:10.024Z,4.33
2023-01-17T03:04:10.062Z,4.36
2023-01-17T03:05:10.076Z,4.37
2023-01-17T03:06:10.054Z,4.39
2023-01-17T03:07:10.069Z,4.39
2023-01-17T03:08:10.074Z,4.40
2023-01-17T03:09:10.126Z,4.39
2023-01-17T03:10:10.121Z,4.43
2023-01-17T03:11:10.108Z,4.42
2023-01-17T03:12:10.103Z,4.41
2023-01-17T03:13:10.105Z,4.40
2023-01-17T03:14:10.112Z,4.43
2023-01-17T03:15:10.117Z,4.42
2023-01-17T03:16:12.560Z,4.41
2023-01-17T03:17:10.130Z,4.44
2023-01-17T03:18:10.135Z,4.43
2023-01-17T03:19:10.144Z,4.44
2023-01-17T03:20:10.151Z,4.45
2023-01-17T03:21:10.155Z,4.44
2023-01-17T03:22:10.162Z,4.43
2023-01-17T03:23:10.168Z,4.43
2023-01-17T03:24:10.201Z,4.43
2023-01-17T03:25:10.209Z,4.45
2023-01-17T03:26:10.191Z,4.44
2023-01-17T03:27:10.192Z,4.45
2023-01-17T03:28:10.207Z,4.44
2023-01-17T03:29:10.202Z,4.43
2023-01-17T03:30:10.209Z,4.44
2023-01-17T03:31:10.213Z,4.47
2023-01-17T03:32:10.223Z,4.46
2023-01-17T03:33:10.249Z,4.47
2023-01-17T03:34:10.238Z,4.49
2023-01-17T03:35:10.304Z,4.49
2023-01-17T03:36:10.245Z,4.47
2023-01-17T03:37:10.258Z,4.49
2023-01-17T03:38:10.257Z,4.50
2023-01-17T03:39:10.266Z,4.50
2023-01-17T03:40:10.271Z,4.52
2023-01-17T03:41:10.276Z,4.52
2023-01-17T03:42:10.290Z,4.55
2023-01-17T03:43:10.288Z,4.55
2023-01-17T03:44:10.296Z,4.53
2023-01-17T03:45:10.307Z,4.52
2023-01-17T03:46:10.336Z,4.53
2023-01-17T03:47:10.314Z,4.52
2023-01-17T03:48:10.331Z,4.54
2023-01-17T03:49:10.331Z,4.53
2023-01-17T03:50:10.337Z,4.54
2023-01-17T03:51:10.336Z,4.54
2023-01-17T03:52:10.349Z,4.53
2023-01-17T03:53:10.350Z,4.53
2023-01-17T03:54:10.361Z,4.54
2023-01-17T03:55:10.362Z,4.51
2023-01-17T03:56:10.367Z,4.50
2023-01-17T03:57:10.379Z,4.50
2023-01-17T03:58:10.385Z,4.51
2023-01-17T03:59:12.954Z,4.51
2023-01-17T04:00:10.391Z,4.52
2023-01-17T04:01:10.581Z,4.52
2023-01-17T04:02:10.514Z,4.51
2023-01-17T04:03:10.409Z,4.53
2023-01-17T04:04:10.417Z,4.55
2023-01-17T04:05:10.428Z,4.55
2023-01-17T04:06:10.430Z,4.55
2023-01-17T04:07:10.435Z,4.54
2023-01-17T04:08:10.440Z,4.56
2023-01-17T04:09:10.449Z,4.55
2023-01-17T04:10:10.460Z,4.57
2023-01-17T04:11:10.461Z,4.54
2023-01-17T04:12:10.467Z,4.54
2023-01-17T04:13:10.475Z,4.53
2023-01-17T04:14:10.491Z,4.52
2023-01-17T04:15:10.496Z,4.54
2023-01-17T04:16:10.495Z,4.53
2023-01-17T04:17:10.500Z,4.53
2023-01-17T04:18:10.527Z,4.53
2023-01-17T04:19:10.509Z,4.53
2023-01-17T04:20:10.515Z,4.55
2023-01-17T04:21:10.522Z,4.58
2023-01-17T04:22:10.527Z,4.56
2023-01-17T04:23:10.536Z,4.54
2023-01-17T04:24:10.543Z,4.57
2023-01-17T04:25:10.544Z,4.56
2023-01-17T04:26:10.551Z,4.56
2023-01-17T04:27:10.557Z,4.56
2023-01-17T04:28:10.563Z,4.57
2023-01-17T04:29:10.569Z,4.55
2023-01-17T04:30:10.585Z,4.51
2023-01-17T04:31:10.641Z,4.51
2023-01-17T04:32:10.589Z,4.41
2023-01-17T04:33:10.611Z,4.38
2023-01-17T04:34:10.600Z,4.35
2023-01-17T04:35:10.607Z,4.30
2023-01-17T04:36:10.617Z,4.28
2023-01-17T04:37:10.621Z,4.27
2023-01-17T04:38:10.637Z,4.28
2023-01-17T04:39:10.636Z,4.24
2023-01-17T04:40:10.646Z,4.23
2023-01-17T04:41:10.654Z,4.23
2023-01-17T04:42:10.659Z,4.23
2023-01-17T04:43:10.664Z,4.22
2023-01-17T04:44:10.671Z,4.19
2023-01-17T04:45:10.678Z,4.14
2023-01-17T04:46:10.730Z,4.07
2023-01-17T04:47:10.689Z,4.02
2023-01-17T04:48:10.697Z,3.90
2023-01-17T04:49:10.706Z,3.85
2023-01-17T04:50:10.711Z,3.84
2023-01-17T04:51:10.715Z,3.78
2023-01-17T04:52:10.722Z,3.73
2023-01-17T04:53:10.736Z,3.69
2023-01-17T04:54:10.746Z,3.67
2023-01-17T04:55:10.738Z,3.63
2023-01-17T04:56:10.747Z,3.61
2023-01-17T04:57:10.762Z,3.58
2023-01-17T04:58:10.763Z,3.56
2023-01-17T04:59:10.765Z,3.56
2023-01-17T05:00:10.781Z,3.56
2023-01-17T05:01:10.882Z,3.58
2023-01-17T05:02:10.863Z,3.60
2023-01-17T05:03:10.797Z,3.57
2023-01-17T05:04:10.799Z,3.55
2023-01-17T05:05:10.805Z,3.51
2023-01-17T05:06:10.813Z,3.46
2023-01-17T05:07:10.817Z,3.39
2023-01-17T05:08:10.822Z,3.40
2023-01-17T05:09:10.830Z,3.41
2023-01-17T05:10:10.842Z,3.40
2023-01-17T05:11:10.844Z,3.40
2023-01-17T05:12:10.878Z,3.39
2023-01-17T05:13:10.856Z,3.40
2023-01-17T05:14:10.859Z,3.44
2023-01-17T05:15:10.901Z,3.46
2023-01-17T05:16:10.939Z,3.48
2023-01-17T05:17:10.909Z,3.49
2023-01-17T05:18:10.905Z,3.51
2023-01-17T05:19:10.919Z,3.53
2023-01-17T05:20:10.922Z,3.57
2023-01-17T05:21:10.910Z,3.59
2023-01-17T05:22:10.921Z,3.60
2023-01-17T05:23:10.932Z,3.59
2023-01-17T05:24:10.934Z,3.58
2023-01-17T05:25:10.950Z,3.56
2023-01-17T05:26:10.944Z,3.56
2023-01-17T05:27:10.976Z,3.55
2023-01-17T05:28:10.957Z,3.54
2023-01-17T05:29:10.971Z,3.54
2023-01-17T05:30:10.975Z,3.52
2023-01-17T05:31:11.047Z,3.50
2023-01-17T05:32:10.982Z,3.50
2023-01-17T05:33:10.991Z,3.51
2023-01-17T05:34:10.999Z,3.48
2023-01-17T05:35:11.040Z,3.46
2023-01-17T05:36:11.011Z,3.45
2023-01-17T05:37:11.015Z,3.43
2023-01-17T05:38:11.022Z,3.44
2023-01-17T05:39:11.028Z,3.45
2023-01-17T05:40:11.036Z,3.47
2023-01-17T05:41:11.042Z,3.47
2023-01-17T05:42:11.057Z,3.45
2023-01-17T05:43:11.054Z,3.44
2023-01-17T05:44:11.068Z,3.44
2023-01-17T05:45:11.077Z,3.45
2023-01-17T05:46:11.146Z,3.45
2023-01-17T05:47:11.087Z,3.46
2023-01-17T05:48:11.087Z,3.44
2023-01-17T05:49:11.092Z,3.45
2023-01-17T05:50:11.097Z,3.46
2023-01-17T05:51:11.109Z,3.48
2023-01-17T05:52:11.113Z,3.47
2023-01-17T05:53:11.129Z,3.53
2023-01-17T05:54:11.126Z,3.52
2023-01-17T05:55:11.158Z,3.53
2023-01-17T05:56:11.136Z,3.54
2023-01-17T05:57:11.145Z,3.52
2023-01-17T05:58:11.152Z,3.51
2023-01-17T05:59:13.988Z,3.51
2023-01-17T06:00:11.164Z,3.51
2023-01-17T06:01:11.223Z,3.53
2023-01-17T06:02:11.178Z,3.52
2023-01-17T06:03:11.185Z,3.55
2023-01-17T06:04:11.192Z,3.58
2023-01-17T06:05:11.200Z,3.56
2023-01-17T06:06:11.203Z,3.55
2023-01-17T06:07:11.210Z,3.53
2023-01-17T06:08:11.217Z,3.55
2023-01-17T06:09:11.225Z,3.47
2023-01-17T06:10:11.229Z,3.38
2023-01-17T06:11:11.236Z,3.34
2023-01-17T06:12:11.240Z,3.28
2023-01-17T06:13:11.253Z,3.22
2023-01-17T06:14:11.257Z,3.22
2023-01-17T06:15:11.284Z,3.19
2023-01-17T06:16:11.453Z,3.10
2023-01-17T06:17:11.284Z,3.05
2023-01-17T06:18:11.293Z,2.97
2023-01-17T06:19:11.308Z,2.81
2023-01-17T06:20:11.312Z,2.67
2023-01-17T06:21:11.318Z,2.59
2023-01-17T06:22:11.318Z,2.56
2023-01-17T06:23:11.327Z,2.48
2023-01-17T06:24:11.337Z,2.43
2023-01-17T06:25:11.338Z,2.42
2023-01-17T06:26:11.346Z,2.44
2023-01-17T06:27:11.359Z,2.42
2023-01-17T06:28:11.368Z,2.44
2023-01-17T06:29:11.367Z,2.44
2023-01-17T06:30:11.374Z,2.43
2023-01-17T06:31:11.410Z,2.38
2023-01-17T06:32:11.394Z,2.30
2023-01-17T06:33:11.404Z,2.23
2023-01-17T06:34:11.400Z,2.20
2023-01-17T06:35:11.405Z,2.12
2023-01-17T06:36:11.414Z,2.07
2023-01-17T06:37:11.423Z,2.05
2023-01-17T06:38:11.427Z,2.03
2023-01-17T06:39:13.425Z,2.00
2023-01-17T06:40:11.447Z,1.97
2023-01-17T06:41:11.459Z,1.92
2023-01-17T06:42:11.465Z,1.91
2023-01-17T06:43:11.478Z,1.88
2023-01-17T06:44:11.480Z,1.86
2023-01-17T06:45:11.496Z,1.83
2023-01-17T06:46:11.536Z,1.81
2023-01-17T06:47:11.519Z,1.78
2023-01-17T06:48:11.525Z,1.77
2023-01-17T06:49:11.548Z,1.73
2023-01-17T06:50:11.542Z,1.72
2023-01-17T06:51:11.555Z,1.73
2023-01-17T06:52:11.552Z,1.72
2023-01-17T06:53:11.564Z,1.67
2023-01-17T06:54:11.568Z,1.60
2023-01-17T06:55:11.570Z,1.58
2023-01-17T06:56:11.579Z,1.56
2023-01-17T06:57:11.592Z,1.57
2023-01-17T06:58:11.592Z,1.62
2023-01-17T06:59:11.602Z,1.64
2023-01-17T07:00:11.614Z,1.64
2023-01-17T07:01:11.734Z,1.65
2023-01-17T07:02:11.621Z,1.64
2023-01-17T07:03:11.623Z,1.61
2023-01-17T07:04:11.688Z,1.59
2023-01-17T07:05:11.656Z,1.53
2023-01-17T07:06:11.655Z,1.50
2023-01-17T07:07:11.656Z,1.48
2023-01-17T07:08:11.659Z,1.48
2023-01-17T07:09:11.672Z,1.47
2023-01-17T07:10:11.674Z,1.45
2023-01-17T07:11:11.698Z,1.45
2023-01-17T07:12:11.693Z,1.45
2023-01-17T07:13:11.703Z,1.43
2023-01-17T07:14:11.716Z,1.41
2023-01-17T07:15:11.706Z,1.45
2023-01-17T07:16:11.726Z,1.46
2023-01-17T07:17:11.718Z,1.43
2023-01-17T07:18:11.764Z,1.41
2023-01-17T07:19:11.730Z,1.38
2023-01-17T07:20:11.737Z,1.37
2023-01-17T07:21:11.751Z,1.38
2023-01-17T07:22:11.761Z,1.38
2023-01-17T07:23:11.767Z,1.36
2023-01-17T07:24:11.777Z,1.35
2023-01-17T07:25:11.774Z,1.34
2023-01-17T07:26:11.784Z,1.37
2023-01-17T07:27:11.784Z,1.38
2023-01-17T07:28:11.790Z,1.37
2023-01-17T07:29:11.796Z,1.40
2023-01-17T07:30:11.819Z,1.38
2023-01-17T07:31:11.865Z,1.35
2023-01-17T07:32:11.815Z,1.38
2023-01-17T07:33:11.821Z,1.41
2023-01-17T07:34:11.831Z,1.42
2023-01-17T07:35:11.833Z,1.44
2023-01-17T07:36:11.842Z,1.46
2023-01-17T07:37:14.315Z,1.49
2023-01-17T07:38:11.859Z,1.50
2023-01-17T07:39:11.874Z,1.53
2023-01-17T07:40:11.880Z,1.56
2023-01-17T07:41:11.882Z,1.59
2023-01-17T07:42:11.891Z,1.60
2023-01-17T07:43:11.893Z,1.63
2023-01-17T07:44:11.907Z,1.64
2023-01-17T07:45:11.907Z,1.64
2023-01-17T07:46:11.985Z,1.64
2023-01-17T07:47:11.928Z,1.63
2023-01-17T07:48:11.945Z,1.63
2023-01-17T07:49:11.941Z,1.67
2023-01-17T07:50:11.984Z,1.70
2023-01-17T07:51:11.957Z,1.70
2023-01-17T07:52:11.966Z,1.69
2023-01-17T07:53:11.967Z,1.67
2023-01-17T07:54:11.980Z,1.70
2023-01-17T07:55:11.984Z,1.70
2023-01-17T07:56:11.987Z,1.71
2023-01-17T07:57:11.994Z,1.72
2023-01-17T07:58:12.012Z,1.75
2023-01-17T07:59:12.010Z,1.75
2023-01-17T08:00:12.018Z,1.78
2023-01-17T08:01:12.127Z,1.81
2023-01-17T08:02:12.030Z,1.84
2023-01-17T08:03:12.038Z,1.87
2023-01-17T08:04:12.118Z,1.91
2023-01-17T08:05:12.053Z,1.93
2023-01-17T08:06:12.060Z,1.94
2023-01-17T08:07:12.066Z,1.97
2023-01-17T08:08:12.069Z,1.94
2023-01-17T08:09:12.080Z,1.94
2023-01-17T08:10:12.086Z,1.91
2023-01-17T08:11:12.099Z,1.89
2023-01-17T08:12:12.105Z,1.89
2023-01-17T08:13:12.109Z,1.91
2023-01-17T08:14:12.115Z,1.92
2023-01-17T08:15:12.136Z,1.94
2023-01-17T08:16:12.170Z,1.92
2023-01-17T08:17:12.139Z,1.95
2023-01-17T08:18:12.145Z,1.96
2023-01-17T08:19:12.155Z,1.94
2023-01-17T08:20:12.160Z,1.97
2023-01-17T08:21:12.168Z,1.95
2023-01-17T08:22:12.174Z,1.94
2023-01-17T08:23:12.186Z,1.98
2023-01-17T08:24:12.190Z,1.92
2023-01-17T08:25:12.220Z,1.87
2023-01-17T08:26:12.212Z,1.81
2023-01-17T08:27:12.217Z,1.78
2023-01-17T08:28:12.218Z,1.72
2023-01-17T08:29:12.225Z,1.68
2023-01-17T08:30:12.231Z,1.66
2023-01-17T08:31:12.255Z,1.65
2023-01-17T08:32:12.247Z,1.65
2023-01-17T08:33:12.252Z,1.66
2023-01-17T08:34:12.259Z,1.69
2023-01-17T08:35:12.269Z,1.70
2023-01-17T08:36:12.276Z,1.74
2023-01-17T08:37:12.288Z,1.76
2023-01-17T08:38:12.297Z,1.81
2023-01-17T08:39:12.297Z,1.85
2023-01-17T08:40:12.298Z,1.93
2023-01-17T08:41:12.306Z,1.94
2023-01-17T08:42:12.309Z,1.96
2023-01-17T08:43:12.314Z,1.95
2023-01-17T08:44:12.322Z,1.96
2023-01-17T08:45:12.330Z,1.94
2023-01-17T08:46:12.391Z,1.91
2023-01-17T08:47:12.346Z,1.86
2023-01-17T08:48:12.364Z,1.80
2023-01-17T08:49:12.387Z,1.75
2023-01-17T08:50:12.367Z,1.70
2023-01-17T08:51:12.376Z,1.61
2023-01-17T08:52:12.390Z,1.57
2023-01-17T08:53:12.405Z,1.55
2023-01-17T08:54:12.399Z,1.52
2023-01-17T08:55:12.409Z,1.52
2023-01-17T08:56:12.429Z,1.60
2023-01-17T08:57:12.424Z,1.63
2023-01-17T08:58:12.446Z,1.65
2023-01-17T08:59:12.439Z,1.69
2023-01-17T09:00:12.446Z,1.71
2023-01-17T09:01:12.530Z,1.75
2023-01-17T09:02:12.454Z,1.80
2023-01-17T09:03:13.174Z,1.87
2023-01-17T09:04:12.482Z,1.97
2023-01-17T09:05:12.475Z,2.06
2023-01-17T09:06:12.481Z,2.15
2023-01-17T09:07:12.493Z,2.21
2023-01-17T09:08:12.499Z,2.30
2023-01-17T09:09:12.501Z,2.32
2023-01-17T09:10:12.530Z,2.31
2023-01-17T09:11:12.525Z,2.33
2023-01-17T09:12:12.522Z,2.33
2023-01-17T09:13:12.544Z,2.29
2023-01-17T09:14:12.548Z,2.26
2023-01-17T09:15:12.544Z,2.26
2023-01-17T09:16:12.615Z,2.31
2023-01-17T09:17:14.471Z,2.36
2023-01-17T09:18:12.566Z,2.43
2023-01-17T09:19:12.589Z,2.46
2023-01-17T09:20:12.591Z,2.54
2023-01-17T09:21:12.603Z,2.63
2023-01-17T09:22:12.604Z,2.75
2023-01-17T09:23:12.606Z,2.81
2023-01-17T09:24:12.613Z,2.86
2023-01-17T09:25:12.653Z,2.84
2023-01-17T09:26:12.644Z,2.86
2023-01-17T09:27:12.655Z,2.88
2023-01-17T09:28:12.660Z,2.88
2023-01-17T09:29:12.674Z,2.91
2023-01-17T09:30:12.684Z,2.91
2023-01-17T09:31:12.683Z,2.94
2023-01-17T09:32:12.691Z,2.94
2023-01-17T09:33:12.684Z,2.94
2023-01-17T09:34:12.691Z,2.93
2023-01-17T09:35:12.705Z,2.88
2023-01-17T09:36:12.702Z,2.77
2023-01-17T09:37:12.708Z,2.72
2023-01-17T09:38:12.717Z,2.71
2023-01-17T09:39:12.722Z,2.67
2023-01-17T09:40:12.728Z,2.63
2023-01-17T09:41:12.737Z,2.64
2023-01-17T09:42:12.746Z,2.68
2023-01-17T09:43:12.751Z,2.70
2023-01-17T09:44:12.757Z,2.73
2023-01-17T09:45:12.766Z,2.70
2023-01-17T09:46:12.838Z,2.69
2023-01-17T09:47:12.825Z,2.66
2023-01-17T09:48:12.783Z,2.62
2023-01-17T09:49:12.793Z,2.61
2023-01-17T09:50:12.809Z,2.61
2023-01-17T09:51:12.808Z,2.62
2023-01-17T09:52:12.818Z,2.65
2023-01-17T09:53:12.825Z,2.64
2023-01-17T09:54:12.836Z,2.63
2023-01-17T09:55:12.870Z,2.58
2023-01-17T09:56:12.853Z,2.54
2023-01-17T09:57:12.858Z,2.51
2023-01-17T09:58:12.899Z,2.53
2023-01-17T09:59:14.319Z,2.59
2023-01-17T10:00:12.882Z,2.62
2023-01-17T10:01:13.100Z,2.65
2023-01-17T10:02:13.060Z,2.70
2023-01-17T10:03:12.998Z,2.77
2023-01-17T10:04:13.087Z,2.80
2023-01-17T10:05:12.947Z,2.74
2023-01-17T10:06:12.942Z,2.80
2023-01-17T10:07:12.932Z,2.84
2023-01-17T10:08:12.942Z,2.94
2023-01-17T10:09:12.947Z,3.12
2023-01-17T10:10:12.954Z,3.22
2023-01-17T10:11:12.969Z,3.32
2023-01-17T10:12:12.975Z,3.35
2023-01-17T10:13:12.980Z,3.38
2023-01-17T10:14:12.986Z,3.32
2023-01-17T10:15:12.995Z,3.26
2023-01-17T10:16:12.996Z,3.26
2023-01-17T10:17:13.007Z,3.20
2023-01-17T10:18:25.332Z,3.11
2023-01-17T10:19:13.026Z,2.99
2023-01-17T10:20:13.050Z,2.91
2023-01-17T10:21:13.052Z,2.83
2023-01-17T10:22:13.053Z,2.71
2023-01-17T10:23:13.058Z,2.64
2023-01-17T10:24:13.065Z,2.56
2023-01-17T10:25:13.093Z,2.49
2023-01-17T10:26:13.082Z,2.36
2023-01-17T10:27:13.085Z,2.30
2023-01-17T10:28:13.102Z,2.25
2023-01-17T10:29:13.098Z,2.22
2023-01-17T10:30:13.119Z,2.19
2023-01-17T10:31:13.205Z,2.18
2023-01-17T10:32:13.124Z,2.19
2023-01-17T10:33:13.139Z,2.18
2023-01-17T10:34:13.142Z,2.21
2023-01-17T10:35:14.844Z,2.27
2023-01-17T10:36:13.154Z,2.32
2023-01-17T10:37:13.164Z,2.37
2023-01-17T10:38:13.165Z,2.38
2023-01-17T10:39:13.179Z,2.38
2023-01-17T10:40:13.185Z,2.40
2023-01-17T10:41:13.189Z,2.40
2023-01-17T10:42:13.205Z,2.36
2023-01-17T10:43:13.200Z,2.37
2023-01-17T10:44:13.217Z,2.32
2023-01-17T10:45:13.213Z,2.33
2023-01-17T10:46:13.293Z,2.31
2023-01-17T10:47:13.239Z,2.25
2023-01-17T10:48:13.235Z,2.24
2023-01-17T10:49:13.240Z,2.26
2023-01-17T10:50:13.251Z,2.26
2023-01-17T10:51:13.261Z,2.27
2023-01-17T10:52:13.264Z,2.29
2023-01-17T10:53:13.272Z,2.31
2023-01-17T10:54:13.275Z,2.33
2023-01-17T10:55:13.280Z,2.32
2023-01-17T10:56:13.298Z,2.35
2023-01-17T10:57:13.298Z,2.34
2023-01-17T10:58:13.302Z,2.38
2023-01-17T10:59:13.309Z,2.41
2023-01-17T11:00:13.318Z,2.43
2023-01-17T11:01:13.423Z,2.45
2023-01-17T11:02:13.401Z,2.48
2023-01-17T11:03:13.339Z,2.51
2023-01-17T11:04:13.348Z,2.57
2023-01-17T11:05:13.360Z,2.54
2023-01-17T11:06:13.363Z,2.58
2023-01-17T11:07:13.373Z,2.63
2023-01-17T11:08:13.379Z,2.69
2023-01-17T11:09:13.414Z,2.72
2023-01-17T11:10:13.397Z,2.81
2023-01-17T11:11:13.410Z,2.79
2023-01-17T11:12:13.419Z,2.79
2023-01-17T11:13:13.422Z,2.79
2023-01-17T11:14:13.432Z,2.72
2023-01-17T11:15:13.444Z,2.68
2023-01-17T11:16:13.442Z,2.66
2023-01-17T11:17:13.452Z,2.64
2023-01-17T11:18:13.466Z,2.59
2023-01-17T11:19:13.467Z,2.57
2023-01-17T11:20:13.473Z,2.52
2023-01-17T11:21:13.481Z,2.53
2023-01-17T11:22:13.483Z,2.57
2023-01-17T11:23:13.502Z,2.57
2023-01-17T11:24:13.510Z,2.66
2023-01-17T11:25:13.512Z,2.76
2023-01-17T11:26:13.518Z,2.90
2023-01-17T11:27:13.523Z,3.00
2023-01-17T11:28:13.537Z,3.08
2023-01-17T11:29:13.545Z,3.12
2023-01-17T11:30:13.557Z,3.23
2023-01-17T11:31:13.646Z,3.32
2023-01-17T11:32:13.561Z,3.34
2023-01-17T11:33:13.578Z,3.41
2023-01-17T11:34:13.590Z,3.43
2023-01-17T11:35:13.591Z,3.48
2023-01-17T11:36:13.596Z,3.51
2023-01-17T11:37:13.604Z,3.55
2023-01-17T11:38:13.613Z,3.57
2023-01-17T11:39:13.618Z,3.60
2023-01-17T11:40:13.638Z,3.64
2023-01-17T11:41:13.633Z,3.65
2023-01-17T11:42:13.640Z,3.58
2023-01-17T11:43:13.655Z,3.51
2023-01-17T11:44:13.665Z,3.45
2023-01-17T11:45:13.677Z,3.39
2023-01-17T11:46:13.697Z,3.33
2023-01-17T11:47:13.698Z,3.29
2023-01-17T11:48:13.708Z,3.27
2023-01-17T11:49:13.710Z,3.19
2023-01-17T11:50:13.719Z,3.15
2023-01-17T11:51:13.735Z,3.08
2023-01-17T11:52:13.726Z,3.04
2023-01-17T11:53:13.740Z,3.02
2023-01-17T11:54:13.746Z,3.03
2023-01-17T11:55:13.752Z,3.00
2023-01-17T11:56:13.761Z,2.97
2023-01-17T11:57:13.769Z,2.97
2023-01-17T11:58:13.775Z,2.95
2023-01-17T11:59:13.788Z,2.93
2023-01-17T12:00:13.793Z,2.89
2023-01-17T12:01:13.847Z,2.91
2023-01-17T12:02:13.823Z,2.99
2023-01-17T12:03:13.832Z,3.02
2023-01-17T12:04:13.832Z,3.12
2023-01-17T12:05:13.873Z,3.19
2023-01-17T12:06:13.849Z,3.30
2023-01-17T12:07:13.848Z,3.46
2023-01-17T12:08:13.865Z,3.56
2023-01-17T12:09:13.868Z,3.63
2023-01-17T12:10:13.878Z,3.75
2023-01-17T12:11:13.893Z,3.77
2023-01-17T12:12:13.899Z,3.77
2023-01-17T12:13:13.901Z,3.78
2023-01-17T12:14:13.915Z,3.72
2023-01-17T12:15:13.924Z,3.67
2023-01-17T12:16:14.002Z,3.63
2023-01-17T12:17:13.945Z,3.62
2023-01-17T12:18:13.963Z,3.62
2023-01-17T12:19:13.954Z,3.58
2023-01-17T12:20:14.030Z,3.56
2023-01-17T12:21:13.970Z,3.47
2023-01-17T12:22:13.978Z,3.41
2023-01-17T12:23:14.063Z,3.28
2023-01-17T12:24:13.993Z,3.18
2023-01-17T12:25:14.003Z,3.07
2023-01-17T12:26:14.011Z,3.00
2023-01-17T12:27:14.019Z,2.93
2023-01-17T12:28:14.022Z,2.89
2023-01-17T12:29:14.035Z,2.84
2023-01-17T12:30:14.113Z,2.84
2023-01-17T12:31:14.051Z,2.82
2023-01-17T12:32:14.063Z,2.80
2023-01-17T12:33:14.075Z,2.82
2023-01-17T12:34:14.077Z,2.84
2023-01-17T12:35:14.090Z,2.89
2023-01-17T12:36:14.090Z,2.92
2023-01-17T12:37:14.101Z,2.95
2023-01-17T12:38:23.843Z,2.96
2023-01-17T12:39:14.156Z,2.95
2023-01-17T12:40:14.222Z,2.95
2023-01-17T12:41:14.143Z,2.95
2023-01-17T12:42:14.147Z,2.95
2023-01-17T12:43:14.162Z,2.91
2023-01-17T12:44:14.185Z,2.89
2023-01-17T12:45:14.173Z,2.82
2023-01-17T12:46:14.189Z,2.82
2023-01-17T12:47:14.184Z,2.79
2023-01-17T12:48:14.188Z,2.80
2023-01-17T12:49:14.199Z,2.83
2023-01-17T12:50:14.262Z,2.82
2023-01-17T12:51:14.222Z,2.82
2023-01-17T12:52:14.232Z,2.82
2023-01-17T12:53:14.239Z,2.86
2023-01-17T12:54:14.251Z,2.84
2023-01-17T12:55:14.258Z,2.87
2023-01-17T12:56:14.268Z,2.88
2023-01-17T12:57:14.274Z,2.91
2023-01-17T12:58:14.287Z,2.92
2023-01-17T12:59:14.293Z,2.95
2023-01-17T13:00:14.300Z,2.97
2023-01-17T13:01:14.416Z,3.04
2023-01-17T13:02:14.394Z,3.09
2023-01-17T13:03:14.332Z,3.13
2023-01-17T13:04:14.332Z,3.19
2023-01-17T13:05:14.338Z,3.25
2023-01-17T13:06:14.343Z,3.27
2023-01-17T13:07:14.352Z,3.28
2023-01-17T13:08:14.357Z,3.28
2023-01-17T13:09:14.371Z,3.32
2023-01-17T13:10:14.376Z,3.39
2023-01-17T13:11:14.387Z,3.41
2023-01-17T13:12:14.394Z,3.48
2023-01-17T13:13:14.403Z,3.58
2023-01-17T13:14:14.409Z,3.62
2023-01-17T13:15:14.420Z,3.64
2023-01-17T13:16:14.528Z,3.67
2023-01-17T13:17:14.439Z,3.65
2023-01-17T13:18:14.451Z,3.74
2023-01-17T13:19:14.470Z,3.82
2023-01-17T13:20:14.458Z,3.86
2023-01-17T13:21:14.472Z,3.84
2023-01-17T13:22:14.476Z,3.83
2023-01-17T13:23:14.485Z,3.86
2023-01-17T13:24:14.503Z,3.83
2023-01-17T13:25:14.511Z,3.85
2023-01-17T13:26:14.509Z,3.84
2023-01-17T13:27:14.517Z,3.75
2023-01-17T13:28:14.516Z,3.75
2023-01-17T13:29:14.525Z,3.65
2023-01-17T13:30:14.530Z,3.62
2023-01-17T13:31:14.572Z,3.60
2023-01-17T13:32:14.563Z,3.69
2023-01-17T13:33:14.561Z,3.77
2023-01-17T13:34:14.561Z,3.87
2023-01-17T13:35:14.568Z,3.96